Time;durP1;ratioP1;P1;durP2;ratioP2;P2;SDS_P1;SDS_P2;PMS_P1;PMS_P2;Temp;Humidity;BMP_temperature;BMP_pressure;BME280_temperature;BME280_humidity;BME280_pressure;Samples;Min_cycle;Max_cycle;Signal;HPM_P1;HPM_P2
2022/10/09 00:00:18;;;;;;;15.23;4.13;;;;;;;5.35;87.61;102464.59;4933005;29;20126;-82
2022/10/09 00:02:43;;;;;;;7.88;5.10;;;;;;;5.32;88.07;102459.31;4933150;29;20414;-82
2022/10/09 00:05:09;;;;;;;6.82;4.70;;;;;;;5.30;87.89;102456.63;4932449;29;20043;-83
2022/10/09 00:07:34;;;;;;;10.15;4.00;;;;;;;5.28;87.48;102465.69;4933549;29;20039;-82
2022/10/09 00:09:59;;;;;;;6.90;3.85;;;;;;;5.30;87.46;102472.81;4931541;29;20036;-82
2022/10/09 00:12:25;;;;;;;8.93;5.00;;;;;;;5.27;87.72;102469.28;4932396;29;20165;-82
2022/10/09 00:14:50;;;;;;;12.57;4.43;;;;;;;5.20;87.94;102468.56;4933368;29;20069;-82
2022/10/09 00:17:16;;;;;;;9.38;4.70;;;;;;;5.16;87.81;102465.97;4933795;29;20476;-82
2022/10/09 00:19:41;;;;;;;8.75;4.35;;;;;;;5.17;87.84;102471.31;4948609;29;20036;-82
2022/10/09 00:22:06;;;;;;;8.50;4.28;;;;;;;5.15;87.67;102464.22;4933330;29;20631;-82
2022/10/09 00:24:32;;;;;;;11.30;4.70;;;;;;;5.12;87.16;102454.38;4915599;29;20032;-82
2022/10/09 00:26:57;;;;;;;6.60;4.38;;;;;;;5.09;87.48;102463.44;4932031;29;20122;-82
2022/10/09 00:29:22;;;;;;;6.88;4.38;;;;;;;5.07;87.60;102467.97;4917898;29;20036;-82
2022/10/09 00:31:49;;;;;;;9.05;4.57;;;;;;;5.06;87.72;102468.91;4932526;29;20036;-82
2022/10/09 00:34:14;;;;;;;10.07;4.93;;;;;;;5.06;88.20;102470.72;4915995;29;20171;-82
2022/10/09 00:36:40;;;;;;;9.45;5.10;;;;;;;5.07;88.16;102478.75;4932061;29;20039;-82
2022/10/09 00:39:05;;;;;;;10.25;4.80;;;;;;;5.02;88.45;102469.88;4931994;29;20032;-83
2022/10/09 00:41:32;;;;;;;8.70;4.53;;;;;;;5.01;88.56;102473.50;4933137;29;20044;-82
2022/10/09 00:44:00;;;;;;;7.57;5.05;;;;;;;4.98;89.42;102472.69;4920707;29;20047;-82
2022/10/09 00:46:35;;;;;;;10.07;4.47;;;;;;;4.96;88.79;102472.72;4916341;29;20463;-82
2022/10/09 00:49:06;;;;;;;12.82;4.95;;;;;;;4.97;88.47;102469.09;4933390;29;20230;-83
2022/10/09 00:51:33;;;;;;;9.38;4.65;;;;;;;4.95;88.44;102464.69;4915697;29;20043;-82
2022/10/09 00:54:00;;;;;;;9.15;4.63;;;;;;;4.92;88.32;102462.94;4931113;29;20051;-82
2022/10/09 00:56:26;;;;;;;8.55;4.60;;;;;;;4.82;88.54;102454.16;4915470;29;20113;-82
2022/10/09 00:58:55;;;;;;;8.68;4.40;;;;;;;4.88;88.04;102463.03;4931499;29;20055;-82
2022/10/09 01:01:21;;;;;;;5.95;4.25;;;;;;;4.82;89.15;102453.28;4931652;29;20056;-82
2022/10/09 01:03:46;;;;;;;11.50;5.13;;;;;;;4.78;89.15;102459.66;4933191;29;20036;-82
2022/10/09 01:06:35;;;;;;;7.38;4.30;;;;;;;4.73;88.68;102453.50;4931294;29;20039;-82
2022/10/09 01:09:15;;;;;;;8.82;4.93;;;;;;;4.78;88.49;102452.47;4912748;29;20044;-82
2022/10/09 01:12:15;;;;;;;6.85;4.32;;;;;;;4.75;88.22;102449.81;4921461;29;20127;-83
2022/10/09 01:14:53;;;;;;;7.38;4.20;;;;;;;4.75;88.67;102448.94;4913003;29;20467;-82
2022/10/09 01:17:34;;;;;;;7.35;4.47;;;;;;;4.76;88.30;102461.53;4911955;29;20499;-83
2022/10/09 01:20:19;;;;;;;7.88;4.60;;;;;;;4.72;88.48;102452.59;4913102;29;20377;-82
2022/10/09 01:23:04;;;;;;;9.88;4.68;;;;;;;4.72;88.28;102455.31;4943300;29;20036;-82
2022/10/09 01:25:40;;;;;;;10.80;4.97;;;;;;;4.70;88.57;102458.94;4929201;29;20050;-82
2022/10/09 01:28:06;;;;;;;10.77;4.75;;;;;;;4.65;88.57;102450.06;4926378;29;20098;-83
2022/10/09 01:30:33;;;;;;;5.88;4.10;;;;;;;4.64;88.44;102446.50;4931576;29;20043;-83
2022/10/09 01:33:00;;;;;;;11.18;4.68;;;;;;;4.63;88.40;102444.72;4929810;29;20046;-83
2022/10/09 01:35:26;;;;;;;8.20;3.97;;;;;;;4.65;88.45;102445.56;4926932;29;20023;-83
2022/10/09 01:37:53;;;;;;;11.88;4.30;;;;;;;4.59;88.17;102440.31;4929936;29;20047;-82
2022/10/09 01:40:20;;;;;;;9.27;3.90;;;;;;;4.61;88.29;102446.53;4929390;29;20146;-83
2022/10/09 01:42:45;;;;;;;9.18;4.65;;;;;;;4.59;88.84;102435.81;4916163;29;20043;-83
2022/10/09 01:45:13;;;;;;;9.27;4.55;;;;;;;4.56;88.73;102443.94;4931006;29;20046;-83
2022/10/09 01:47:38;;;;;;;7.78;4.03;;;;;;;4.53;88.92;102435.97;4930720;29;20020;-82
2022/10/09 01:50:29;;;;;;;7.93;4.00;;;;;;;4.53;89.00;102435.06;4929796;29;20067;-82
2022/10/09 01:53:05;;;;;;;8.63;4.22;;;;;;;4.49;88.67;102438.75;4929527;29;20058;-82
2022/10/09 01:55:54;;;;;;;7.10;4.30;;;;;;;4.49;88.42;102434.25;4915402;29;20470;-82
2022/10/09 01:58:43;;;;;;;6.25;3.85;;;;;;;4.44;88.56;102419.97;4920862;29;20608;-83
2022/10/09 02:01:14;;;;;;;9.82;3.83;;;;;;;4.40;88.77;102422.78;4931190;29;20508;-82
2022/10/09 02:03:43;;;;;;;5.32;3.40;;;;;;;4.41;88.76;102422.72;4912043;29;20044;-82
2022/10/09 02:06:12;;;;;;;9.82;3.88;;;;;;;4.38;88.51;102411.13;4911764;29;20028;-83
2022/10/09 02:08:39;;;;;;;15.52;4.80;;;;;;;4.35;89.22;102412.09;4911548;29;20036;-83
2022/10/09 02:11:05;;;;;;;6.28;4.03;;;;;;;4.34;89.42;102422.00;4911015;29;20550;-83
2022/10/09 02:13:32;;;;;;;5.45;3.88;;;;;;;4.34;89.04;102416.59;4922147;29;20036;-83
2022/10/09 02:16:17;;;;;;;7.50;3.83;;;;;;;4.32;88.67;102406.75;4913985;29;20040;-82
2022/10/09 02:18:47;;;;;;;6.25;3.83;;;;;;;4.26;88.75;102396.13;4929075;29;20444;-83
2022/10/09 02:21:42;;;;;;;8.15;3.60;;;;;;;4.25;89.08;102405.13;4930090;29;20046;-83
2022/10/09 02:24:11;;;;;;;6.57;3.70;;;;;;;4.24;88.94;102406.94;4910328;29;20048;-83
2022/10/09 02:26:37;;;;;;;7.18;4.57;;;;;;;4.22;89.36;102402.50;4920689;29;20043;-82
2022/10/09 02:29:03;;;;;;;8.70;4.25;;;;;;;4.16;89.61;102389.16;4905664;29;20044;-82
2022/10/09 02:31:32;;;;;;;8.20;4.22;;;;;;;4.14;89.89;102401.75;4911920;29;20095;-82
2022/10/09 02:34:00;;;;;;;7.13;4.13;;;;;;;4.12;90.12;102395.53;4915546;29;20475;-83
2022/10/09 02:36:27;;;;;;;5.40;3.53;;;;;;;4.11;89.62;102400.03;4930023;29;20066;-82
2022/10/09 02:38:54;;;;;;;5.45;3.88;;;;;;;4.12;89.56;102398.22;4928623;29;20044;-83
2022/10/09 02:41:20;;;;;;;8.60;4.15;;;;;;;4.10;89.26;102398.25;4941596;28;20043;-83
2022/10/09 02:43:45;;;;;;;8.23;4.07;;;;;;;4.06;89.37;102385.78;4933049;29;20039;-83
2022/10/09 02:46:10;;;;;;;9.05;4.93;;;;;;;4.09;89.10;102391.09;4933961;29;20483;-83
2022/10/09 02:48:36;;;;;;;5.55;3.53;;;;;;;4.07;88.97;102384.84;4934106;29;20368;-82
2022/10/09 02:51:01;;;;;;;7.60;4.15;;;;;;;4.07;88.72;102390.25;4930909;29;20043;-83
2022/10/09 02:53:26;;;;;;;9.23;4.32;;;;;;;4.05;89.11;102400.13;4914706;29;20043;-83
2022/10/09 02:55:52;;;;;;;7.15;3.88;;;;;;;4.02;89.45;102387.66;4911558;29;20032;-83
2022/10/09 02:58:17;;;;;;;7.95;5.30;;;;;;;4.00;89.31;102386.78;4937982;29;20192;-83
2022/10/09 03:00:47;;;;;;;7.00;3.40;;;;;;;4.00;89.23;102391.28;4930474;29;20468;-83
2022/10/09 03:03:12;;;;;;;8.15;4.35;;;;;;;3.99;89.51;102384.13;4916679;29;20032;-83
2022/10/09 03:05:37;;;;;;;7.75;4.70;;;;;;;3.97;89.79;102378.78;4933431;29;20502;-82
2022/10/09 03:08:03;;;;;;;9.10;4.13;;;;;;;3.94;90.24;102378.81;4914125;29;20407;-83
2022/10/09 03:10:28;;;;;;;9.63;4.18;;;;;;;3.92;90.10;102377.09;4898767;29;20038;-82
2022/10/09 03:12:53;;;;;;;6.47;3.70;;;;;;;3.94;89.94;102383.34;4932125;29;20049;-83
2022/10/09 03:15:19;;;;;;;7.40;3.85;;;;;;;3.94;89.75;102389.59;4933198;29;20047;-83
2022/10/09 03:17:44;;;;;;;8.82;4.35;;;;;;;3.94;89.73;102381.53;4932078;29;20032;-83
2022/10/09 03:20:09;;;;;;;10.20;4.63;;;;;;;3.93;90.28;102379.75;4933300;29;20039;-82
2022/10/09 03:22:35;;;;;;;13.35;4.47;;;;;;;3.91;90.32;102386.06;4934448;29;20118;-82
2022/10/09 03:25:00;;;;;;;6.90;4.50;;;;;;;3.90;89.96;102379.81;4924068;29;20156;-83
2022/10/09 03:27:25;;;;;;;4.25;3.38;;;;;;;3.91;90.18;102381.56;4931589;29;20044;-83
2022/10/09 03:29:51;;;;;;;6.60;4.53;;;;;;;3.89;89.57;102378.03;4933089;29;20511;-83
2022/10/09 03:32:16;;;;;;;9.88;4.28;;;;;;;3.83;89.39;102379.06;4932668;29;20050;-83
2022/10/09 03:34:41;;;;;;;8.48;4.10;;;;;;;3.88;89.66;102380.78;4932381;29;20481;-83
2022/10/09 03:37:07;;;;;;;5.93;3.70;;;;;;;3.83;89.68;102378.16;4934487;29;20027;-83
2022/10/09 03:39:32;;;;;;;8.30;4.32;;;;;;;3.80;90.22;102367.44;4932305;29;20074;-83
2022/10/09 03:41:57;;;;;;;5.35;3.75;;;;;;;3.78;90.13;102374.69;4944509;29;20131;-82
2022/10/09 03:44:23;;;;;;;6.43;4.47;;;;;;;3.80;90.92;102373.72;4914330;29;20127;-83
2022/10/09 03:46:48;;;;;;;11.73;4.55;;;;;;;3.76;90.90;102369.31;4897930;29;20614;-83
2022/10/09 03:49:14;;;;;;;5.72;4.13;;;;;;;3.72;90.71;102367.59;4913197;29;20082;-83
2022/10/09 03:51:40;;;;;;;9.13;5.20;;;;;;;3.72;91.21;102370.28;4915555;29;20051;-83
2022/10/09 03:54:05;;;;;;;8.00;4.25;;;;;;;3.70;90.53;102373.94;4913127;29;20040;-83
2022/10/09 03:56:31;;;;;;;10.15;4.15;;;;;;;3.68;90.64;102375.75;4902720;29;20179;-83
2022/10/09 03:58:56;;;;;;;13.98;4.47;;;;;;;3.68;90.63;102382.00;4898049;29;20052;-83
2022/10/09 04:01:21;;;;;;;6.60;4.05;;;;;;;3.66;90.64;102382.97;4913528;29;20064;-83
2022/10/09 04:03:47;;;;;;;9.18;4.00;;;;;;;3.61;90.80;102377.69;4913278;29;20044;-83
2022/10/09 04:06:12;;;;;;;7.97;4.10;;;;;;;3.56;90.34;102380.47;4919921;29;20035;-83
2022/10/09 04:08:37;;;;;;;9.98;4.97;;;;;;;3.56;90.10;102384.97;4932531;29;20044;-83
2022/10/09 04:11:03;;;;;;;9.02;4.78;;;;;;;3.58;90.39;102385.81;4930180;29;20042;-83
2022/10/09 04:13:28;;;;;;;16.92;4.72;;;;;;;3.60;91.23;102385.78;4925538;29;20035;-83
2022/10/09 04:15:55;;;;;;;7.22;4.72;;;;;;;3.55;91.32;102384.06;4931689;29;20150;-83
2022/10/09 04:18:20;;;;;;;10.98;4.72;;;;;;;3.50;91.31;102382.41;4932286;29;20046;-83
2022/10/09 04:20:53;;;;;;;10.95;4.55;;;;;;;3.51;91.46;102382.34;4915447;29;20114;-82
2022/10/09 04:23:19;;;;;;;;;;;;;;;3.55;90.35;102384.06;4933931;29;20436;-83
2022/10/09 04:25:45;;;;;;;11.30;4.55;;;;;;;3.49;90.88;102377.91;4930087;29;19993;-82
2022/10/09 04:28:11;;;;;;;9.63;4.63;;;;;;;3.48;90.65;102382.41;4931304;29;20118;-83
2022/10/09 04:30:36;;;;;;;8.38;4.57;;;;;;;3.45;90.59;102381.56;4916417;29;20040;-83
2022/10/09 04:33:03;;;;;;;8.43;4.13;;;;;;;3.39;91.19;102369.13;4926485;29;20048;-83
2022/10/09 04:35:29;;;;;;;7.88;4.30;;;;;;;3.35;91.84;102369.19;4931675;29;20074;-83
2022/10/09 04:37:54;;;;;;;11.50;4.72;;;;;;;3.31;91.22;102371.03;4915333;29;20142;-83
2022/10/09 04:40:19;;;;;;;8.85;4.47;;;;;;;3.31;91.18;102366.59;4930925;29;20028;-83
2022/10/09 04:42:45;;;;;;;7.97;4.65;;;;;;;3.28;91.16;102371.13;4915943;29;20043;-83
2022/10/09 04:45:10;;;;;;;8.55;4.72;;;;;;;3.25;90.92;102361.28;4932246;29;20424;-83
2022/10/09 04:47:36;;;;;;;11.30;4.47;;;;;;;3.25;91.99;102361.28;4931526;29;20427;-83
2022/10/09 04:50:01;;;;;;;9.70;4.70;;;;;;;3.24;91.87;102364.03;4926462;29;20118;-83
2022/10/09 04:52:27;;;;;;;8.93;4.35;;;;;;;3.18;91.10;102356.94;4931838;29;20620;-83
2022/10/09 04:54:52;;;;;;;7.80;4.10;;;;;;;3.19;90.79;102374.84;4914562;29;20040;-83
2022/10/09 04:57:18;;;;;;;8.73;4.32;;;;;;;3.19;90.74;102364.09;4930595;29;20145;-83
2022/10/09 04:59:43;;;;;;;6.82;3.90;;;;;;;3.18;91.06;102358.75;4913017;29;20095;-83
2022/10/09 05:02:08;;;;;;;8.43;3.90;;;;;;;3.12;91.68;102361.53;4913883;29;20056;-83
2022/10/09 05:04:34;;;;;;;8.65;4.13;;;;;;;3.09;91.95;102362.50;4920372;29;20044;-83
2022/10/09 05:06:59;;;;;;;7.85;4.00;;;;;;;3.07;91.56;102362.50;4912602;29;20115;-83
2022/10/09 05:09:24;;;;;;;6.03;3.80;;;;;;;3.02;91.55;102345.56;4898538;29;20181;-83
2022/10/09 05:11:50;;;;;;;6.13;4.22;;;;;;;3.03;91.65;102346.44;4913943;29;20118;-83
2022/10/09 05:14:15;;;;;;;5.93;3.83;;;;;;;2.99;91.26;102350.13;4907517;29;20047;-83
2022/10/09 05:16:41;;;;;;;6.70;3.75;;;;;;;2.99;91.37;102342.06;4912293;29;20063;-83
2022/10/09 05:19:06;;;;;;;6.32;4.75;;;;;;;2.95;91.44;102343.03;4896300;29;20028;-83
2022/10/09 05:21:32;;;;;;;9.75;4.60;;;;;;;2.94;91.53;102342.13;4912122;29;20091;-83
2022/10/09 05:23:57;;;;;;;6.53;4.10;;;;;;;2.93;91.31;102345.72;4913588;29;20051;-83
2022/10/09 05:26:24;;;;;;;8.95;4.43;;;;;;;2.95;90.92;102346.59;4930016;29;20897;-83
2022/10/09 05:28:49;;;;;;;10.70;4.88;;;;;;;2.91;90.89;102335.91;4914242;29;20062;-83
2022/10/09 05:31:26;;;;;;;10.30;5.18;;;;;;;2.91;91.04;102342.16;4930714;29;20063;-83
2022/10/09 05:33:52;;;;;;;7.32;5.05;;;;;;;2.90;90.86;102340.41;4931684;29;20035;-83
2022/10/09 05:36:18;;;;;;;10.52;6.45;;;;;;;2.86;90.91;102343.16;4917729;29;20424;-83
2022/10/09 05:38:44;;;;;;;13.43;5.88;;;;;;;2.81;91.08;102335.19;4896185;29;20088;-83
2022/10/09 05:41:12;;;;;;;8.93;5.60;;;;;;;2.81;91.32;102344.13;4930668;29;20039;-83
2022/10/09 05:43:40;;;;;;;10.88;5.43;;;;;;;2.81;91.47;102345.94;4924949;29;20044;-83
2022/10/09 05:46:18;;;;;;;9.95;6.15;;;;;;;2.79;91.77;102345.94;4930599;29;20071;-83
2022/10/09 05:48:46;;;;;;;9.98;5.38;;;;;;;2.77;91.42;102345.09;4911696;29;20040;-83
2022/10/09 05:51:15;;;;;;;8.48;5.15;;;;;;;2.78;91.30;102343.28;4912128;29;20028;-83
2022/10/09 05:53:42;;;;;;;7.85;5.18;;;;;;;2.78;91.54;102349.53;4912347;29;20400;-83
2022/10/09 05:56:18;;;;;;;9.98;5.63;;;;;;;2.77;91.84;102341.50;4912381;29;20043;-83
2022/10/09 05:58:55;;;;;;;13.02;5.93;;;;;;;2.74;91.83;102337.06;4918818;29;20514;-83
2022/10/09 06:01:23;;;;;;;14.25;6.18;;;;;;;2.72;92.17;102343.38;4916126;29;20385;-83
2022/10/09 06:03:50;;;;;;;10.70;5.40;;;;;;;2.71;92.11;102333.56;4895532;29;20055;-83
2022/10/09 06:06:17;;;;;;;7.43;5.03;;;;;;;2.73;91.84;102346.03;4911441;29;20036;-82
2022/10/09 06:08:43;;;;;;;9.77;5.60;;;;;;;2.71;92.12;102341.63;4941199;29;20040;-83
2022/10/09 06:11:14;;;;;;;12.05;5.90;;;;;;;2.72;92.13;102340.69;4929940;29;20051;-83
2022/10/09 06:13:40;;;;;;;8.00;5.10;;;;;;;2.76;91.82;102347.81;4930546;29;20508;-83
2022/10/09 06:16:07;;;;;;;9.48;5.28;;;;;;;2.75;92.00;102335.25;4929443;29;20043;-83
2022/10/09 06:18:32;;;;;;;12.65;6.30;;;;;;;2.77;91.62;102341.50;4930373;29;20039;-83
2022/10/09 06:21:00;;;;;;;7.18;5.22;;;;;;;2.81;92.25;102345.94;4928839;29;20166;-83
2022/10/09 06:23:25;;;;;;;10.10;5.90;;;;;;;2.85;92.61;102346.78;4914892;29;20078;-83
2022/10/09 06:26:07;;;;;;;9.15;5.68;;;;;;;2.86;92.50;102344.06;4914777;29;20047;-83
2022/10/09 06:28:33;;;;;;;11.38;5.95;;;;;;;2.86;92.17;102352.13;4914287;29;20151;-83
2022/10/09 06:31:05;;;;;;;8.98;5.40;;;;;;;2.92;92.59;102352.00;4914201;29;20087;-83
2022/10/09 06:33:32;;;;;;;13.23;6.85;;;;;;;2.90;93.09;102353.84;4913848;29;20581;-83
2022/10/09 06:36:04;;;;;;;9.80;6.03;;;;;;;2.96;93.33;102352.84;4929703;29;20051;-83
2022/10/09 06:38:29;;;;;;;8.83;5.37;;;;;;;2.96;93.39;102353.72;4930341;29;20503;-83
2022/10/09 06:40:59;;;;;;;12.80;5.65;;;;;;;2.99;93.42;102348.31;4916832;29;20122;-83
2022/10/09 06:43:25;;;;;;;9.32;5.35;;;;;;;3.01;93.17;102351.84;4941965;29;20075;-83
2022/10/09 06:45:50;;;;;;;8.20;5.97;;;;;;;3.05;93.22;102350.91;4910976;29;20059;-83
2022/10/09 06:48:15;;;;;;;10.27;5.80;;;;;;;3.07;93.40;102351.75;4926979;29;20046;-83
2022/10/09 06:50:41;;;;;;;7.75;5.47;;;;;;;3.13;93.10;102347.19;4911592;29;20036;-83
2022/10/09 06:53:06;;;;;;;9.52;5.60;;;;;;;3.17;94.34;102344.44;4911789;29;20076;-83
2022/10/09 06:55:32;;;;;;;10.70;5.90;;;;;;;3.24;94.16;102355.94;4911212;29;20040;-83
2022/10/09 06:57:58;;;;;;;9.07;5.70;;;;;;;3.30;93.56;102353.16;4923216;29;20122;-83
2022/10/09 07:00:24;;;;;;;8.25;5.70;;;;;;;3.34;93.75;102352.19;4929479;29;20040;-83
2022/10/09 07:02:49;;;;;;;9.55;5.78;;;;;;;3.37;94.15;102351.25;4931358;29;20510;-83
2022/10/09 07:05:15;;;;;;;14.00;6.22;;;;;;;3.47;94.74;102350.16;4929706;29;20491;-83
2022/10/09 07:07:41;;;;;;;8.95;5.72;;;;;;;3.60;94.75;102350.81;4921221;29;20059;-83
2022/10/09 07:10:07;;;;;;;10.43;6.60;;;;;;;3.75;94.20;102350.50;4925522;29;20476;-83
2022/10/09 07:12:37;;;;;;;12.23;6.80;;;;;;;3.89;94.60;102348.41;4923401;29;20072;-83
2022/10/09 07:15:04;;;;;;;11.23;7.30;;;;;;;3.99;95.17;102358.06;4929862;29;20371;-83
2022/10/09 07:17:30;;;;;;;13.68;7.90;;;;;;;4.06;95.64;102351.66;4929434;29;20028;-83
2022/10/09 07:19:55;;;;;;;10.93;8.23;;;;;;;4.25;96.25;102354.84;4929870;29;20042;-83
2022/10/09 07:22:21;;;;;;;15.55;7.47;;;;;;;4.51;95.54;102342.56;4926953;29;20071;-83
2022/10/09 07:24:47;;;;;;;13.93;7.15;;;;;;;4.76;94.47;102343.78;4929061;29;20510;-83
2022/10/09 07:27:13;;;;;;;16.75;7.28;;;;;;;5.09;93.07;102347.44;4917966;29;20043;-83
2022/10/09 07:29:38;;;;;;;15.30;7.28;;;;;;;5.19;93.45;102350.78;4930429;29;20036;-83
2022/10/09 07:32:04;;;;;;;11.65;7.75;;;;;;;5.18;94.09;102354.44;4913680;29;20055;-83
2022/10/09 07:34:29;;;;;;;12.57;7.07;;;;;;;5.07;93.93;102340.31;4914061;29;20032;-83
2022/10/09 07:36:55;;;;;;;9.88;7.20;;;;;;;5.07;93.92;102346.59;4921617;29;20066;-83
2022/10/09 07:39:20;;;;;;;11.77;6.78;;;;;;;5.04;93.80;102354.78;4899851;29;20036;-83
2022/10/09 07:41:49;;;;;;;13.25;7.35;;;;;;;5.01;94.04;102346.75;4908081;29;20069;-83
2022/10/09 07:44:14;;;;;;;10.77;7.03;;;;;;;4.99;94.49;102343.22;4921228;29;20071;-83
2022/10/09 07:46:40;;;;;;;13.75;8.05;;;;;;;5.03;95.33;102336.78;4917478;29;20073;-83
2022/10/09 07:49:05;;;;;;;12.27;8.05;;;;;;;5.08;95.63;102347.47;4916846;29;20135;-83
2022/10/09 07:51:31;;;;;;;13.85;8.80;;;;;;;5.12;96.58;102350.03;4932753;29;20553;-83
2022/10/09 07:53:57;;;;;;;16.52;9.05;;;;;;;5.19;97.18;102356.19;4931346;29;20042;-83
2022/10/09 07:56:24;;;;;;;21.33;9.15;;;;;;;5.23;97.21;102348.91;4931307;29;20058;-83
2022/10/09 07:58:59;;;;;;;15.48;9.55;;;;;;;5.23;98.04;102344.41;4925156;29;20473;-83
2022/10/09 08:01:26;;;;;;;15.82;8.52;;;;;;;5.34;98.58;102342.28;4931881;29;20060;-83
2022/10/09 08:03:52;;;;;;;14.52;8.95;;;;;;;5.40;98.59;102343.03;4931794;29;20114;-83
2022/10/09 08:06:18;;;;;;;19.25;9.55;;;;;;;5.49;99.05;102348.19;4932658;29;20468;-83
2022/10/09 08:08:48;;;;;;;16.23;9.18;;;;;;;5.56;99.39;102333.63;4915194;29;20024;-83
2022/10/09 08:11:15;;;;;;;15.60;9.45;;;;;;;5.67;99.38;102346.81;4913199;29;20453;-83
2022/10/09 08:13:42;;;;;;;21.45;9.80;;;;;;;5.75;99.90;102336.69;4924377;29;20483;-82
2022/10/09 08:16:08;;;;;;;21.65;10.93;;;;;;;5.95;100.00;102333.44;4932850;29;20074;-83
2022/10/09 08:18:33;;;;;;;24.38;10.52;;;;;;;6.05;100.00;102321.44;4934012;29;20067;-83
2022/10/09 08:21:00;;;;;;;19.60;12.07;;;;;;;6.21;100.00;102327.28;4931544;29;20471;-83
2022/10/09 08:23:26;;;;;;;23.25;11.43;;;;;;;6.30;100.00;102325.16;4913441;29;20044;-83
2022/10/09 08:25:52;;;;;;;22.83;11.45;;;;;;;6.43;100.00;102331.06;4928491;29;20027;-83
2022/10/09 08:28:17;;;;;;;19.63;10.85;;;;;;;6.60;100.00;102330.53;4931559;29;20062;-83
2022/10/09 08:30:42;;;;;;;21.13;11.55;;;;;;;6.72;100.00;102323.88;4915732;29;20095;-83
2022/10/09 08:33:08;;;;;;;17.00;10.93;;;;;;;6.81;100.00;102315.44;4948542;29;20521;-83
2022/10/09 08:35:33;;;;;;;22.48;12.50;;;;;;;6.98;100.00;102318.44;4932720;29;20469;-83
2022/10/09 08:37:58;;;;;;;19.10;11.65;;;;;;;7.13;100.00;102308.91;4943652;29;20024;-83
2022/10/09 08:40:52;;;;;;;24.70;12.13;;;;;;;7.32;100.00;102317.28;4912407;29;20557;-83
2022/10/09 08:43:30;;;;;;;19.00;10.88;;;;;;;7.43;100.00;102308.78;4880177;29;20074;-83
2022/10/09 08:45:59;;;;;;;22.90;11.40;;;;;;;7.56;99.96;102302.88;4896503;29;20048;-83
2022/10/09 08:48:27;;;;;;;20.52;12.07;;;;;;;7.65;99.74;102305.25;4912866;29;20254;-83
2022/10/09 08:50:55;;;;;;;26.98;13.02;;;;;;;7.71;99.65;102290.59;4930955;29;20046;-83
2022/10/09 08:53:27;;;;;;;22.17;11.68;;;;;;;7.85;100.00;102307.22;4915884;29;20098;-83
2022/10/09 08:55:56;;;;;;;21.75;11.43;;;;;;;7.93;99.03;102305.09;4930467;29;20520;-83
2022/10/09 08:58:27;;;;;;;21.80;11.82;;;;;;;8.03;98.74;102294.78;4931966;29;20106;-84
2022/10/09 09:01:38;;;;;;;21.75;12.45;;;;;;;8.18;97.74;102302.31;4930915;29;20036;-82
2022/10/09 09:04:12;;;;;;;21.20;11.60;;;;;;;8.31;96.77;102289.19;4930475;29;20582;-83
2022/10/09 09:06:59;;;;;;;23.08;12.15;;;;;;;8.45;96.94;102285.06;4931904;29;20042;-83
2022/10/09 09:09:43;;;;;;;20.33;10.77;;;;;;;8.60;95.83;102292.56;4930589;29;20062;-83
2022/10/09 09:12:20;;;;;;;15.88;9.98;;;;;;;8.73;94.39;102284.81;4931058;29;20282;-83
2022/10/09 09:15:07;;;;;;;20.77;11.73;;;;;;;8.90;94.28;102283.13;4913682;29;20043;-83
2022/10/09 09:17:38;;;;;;;16.40;10.48;;;;;;;9.07;93.63;102285.13;4896019;29;20150;-83
2022/10/09 09:20:11;;;;;;;20.58;11.10;;;;;;;9.15;92.71;102277.56;4898072;29;20507;-83
2022/10/09 09:22:41;;;;;;;21.08;9.65;;;;;;;9.26;92.31;102276.19;4931100;29;20406;-83
2022/10/09 09:25:29;;;;;;;13.82;9.18;;;;;;;9.47;90.71;102275.25;4922789;29;20043;-84
2022/10/09 09:28:08;;;;;;;16.85;8.15;;;;;;;9.66;88.74;102259.88;4912999;29;20431;-84
2022/10/09 09:30:39;;;;;;;17.05;8.80;;;;;;;9.80;88.82;102264.69;4931819;29;20047;-84
2022/10/09 09:33:24;;;;;;;11.68;8.48;;;;;;;9.90;88.68;102256.97;4915085;29;20168;-84
2022/10/09 09:36:10;;;;;;;16.38;7.82;;;;;;;10.12;88.03;102246.84;4931692;29;20448;-84
2022/10/09 09:38:36;;;;;;;12.50;7.53;;;;;;;10.26;86.96;102235.34;4929865;29;20040;-83
2022/10/09 09:41:03;;;;;;;10.60;6.63;;;;;;;10.40;86.32;102234.66;4927037;29;20031;-84
2022/10/09 09:43:29;;;;;;;14.88;8.35;;;;;;;10.55;86.95;102228.44;4916132;29;20040;-84
2022/10/09 09:45:57;;;;;;;13.63;7.22;;;;;;;10.70;85.29;102227.66;4911768;29;20031;-83
2022/10/09 09:48:46;;;;;;;14.73;7.75;;;;;;;10.84;86.16;102237.84;4927749;29;20451;-84
2022/10/09 09:51:25;;;;;;;13.40;7.03;;;;;;;10.98;84.66;102215.34;4914874;29;20044;-84
2022/10/09 09:53:50;;;;;;;16.25;7.03;;;;;;;11.12;81.71;102220.06;4929493;29;20134;-84
2022/10/09 09:56:16;;;;;;;11.65;6.43;;;;;;;11.21;83.17;102217.75;4929934;29;20507;-84
2022/10/09 09:58:51;;;;;;;12.18;6.30;;;;;;;11.28;82.69;102211.97;4930890;29;20065;-84
2022/10/09 10:01:29;;;;;;;16.83;6.55;;;;;;;11.36;82.39;102205.13;4931306;29;20066;-84
2022/10/09 10:03:58;;;;;;;14.50;5.53;;;;;;;11.44;81.07;102208.34;4930114;29;20103;-83
2022/10/09 10:06:28;;;;;;;11.93;5.40;;;;;;;11.49;80.72;102203.50;4928613;29;20035;-84
2022/10/09 10:08:58;;;;;;;13.95;5.43;;;;;;;11.57;79.13;102197.66;4929248;29;20047;-83
2022/10/09 10:11:24;;;;;;;14.93;5.97;;;;;;;11.68;79.37;102205.22;4913770;29;20047;-83
2022/10/09 10:13:49;;;;;;;7.28;5.57;;;;;;;11.86;78.30;102206.09;4921124;29;20028;-83
2022/10/09 10:16:24;;;;;;;9.25;5.60;;;;;;;12.02;78.31;102201.50;4929927;29;20471;-84
2022/10/09 10:18:51;;;;;;;9.10;5.28;;;;;;;12.19;78.23;102201.44;4921306;29;20387;-83
2022/10/09 10:21:18;;;;;;;11.07;5.40;;;;;;;12.36;75.33;102192.28;4914415;29;20483;-84
2022/10/09 10:23:58;;;;;;;13.68;5.85;;;;;;;12.58;76.08;102196.47;4913922;29;20086;-84
2022/10/09 10:26:30;;;;;;;12.50;5.22;;;;;;;12.66;74.31;102184.13;4916356;29;20048;-84
2022/10/09 10:29:14;;;;;;;7.90;5.60;;;;;;;12.78;75.17;102193.44;4929657;29;20127;-84
2022/10/09 10:31:51;;;;;;;12.20;5.07;;;;;;;12.87;73.39;102179.22;4931586;29;20036;-84
2022/10/09 10:34:24;;;;;;;8.43;5.38;;;;;;;12.97;72.75;102177.69;4928678;29;20052;-84
2022/10/09 10:36:58;;;;;;;8.82;4.80;;;;;;;13.23;75.86;102183.41;4930220;29;20523;-84
2022/10/09 10:39:40;;;;;;;14.60;6.43;;;;;;;13.32;69.40;102173.78;4930442;29;20028;-84
2022/10/09 10:42:31;;;;;;;8.48;5.10;;;;;;;13.48;70.63;102169.97;4929709;29;20482;-84
2022/10/09 10:44:58;;;;;;;10.48;5.50;;;;;;;13.63;69.04;102157.19;4910073;29;20091;-84
2022/10/09 10:47:28;;;;;;;11.52;4.60;;;;;;;14.08;75.01;102151.53;4914023;29;20044;-84
2022/10/09 10:49:54;;;;;;;10.77;5.40;;;;;;;14.39;70.73;102145.75;4928692;29;20122;-84
2022/10/09 10:52:47;;;;;;;10.02;5.50;;;;;;;14.72;69.86;102147.22;4929962;29;20143;-84
2022/10/09 10:55:55;;;;;;;12.55;5.30;;;;;;;14.85;70.87;102136.28;4917677;29;20078;-84
2022/10/09 10:58:31;;;;;;;7.38;4.15;;;;;;;15.26;69.04;102138.84;4910996;29;20500;-84
2022/10/09 11:01:18;;;;;;;9.60;4.47;;;;;;;15.62;68.45;102132.56;4895006;29;20508;-85
2022/10/09 11:04:20;;;;;;;7.72;4.60;;;;;;;16.04;67.88;102128.53;4918891;29;20035;-84
2022/10/09 11:07:20;;;;;;;9.00;4.95;;;;;;;16.41;66.27;102116.59;4933140;29;20094;-84
2022/10/09 11:10:01;;;;;;;8.40;4.38;;;;;;;16.46;61.75;102118.03;4932145;29;20043;-85
2022/10/09 11:12:59;;;;;;;6.53;4.10;;;;;;;16.51;61.72;102114.91;4928155;29;20078;-84
2022/10/09 11:15:43;;;;;;;12.27;4.28;;;;;;;16.80;61.14;102115.44;4933186;29;20495;-84
2022/10/09 11:18:30;;;;;;;8.50;4.10;;;;;;;17.20;62.96;102104.88;4933833;29;20040;-85
2022/10/09 11:21:12;;;;;;;9.15;4.20;;;;;;;17.52;60.98;102102.25;4933792;29;20035;-85
2022/10/09 11:24:08;;;;;;;6.30;4.28;;;;;;;17.65;59.86;102102.13;4949946;29;20040;-85
2022/10/09 11:26:55;;;;;;;14.52;4.22;;;;;;;17.94;61.84;102090.59;4945446;29;20051;-85
2022/10/09 11:29:26;;;;;;;8.55;4.40;;;;;;;18.14;58.20;102089.81;4928183;29;20130;-85
2022/10/09 11:31:57;;;;;;;12.45;4.43;;;;;;;18.31;55.98;102085.63;4933894;29;20398;-85
2022/10/09 11:34:43;;;;;;;7.20;4.05;;;;;;;18.44;58.46;102091.81;4932855;29;20139;-85
2022/10/09 11:37:16;;;;;;;9.48;3.88;;;;;;;18.51;55.75;102086.66;4915279;29;20044;-85
2022/10/09 11:39:43;;;;;;;8.60;4.35;;;;;;;18.61;54.27;102077.47;4921723;29;20040;-85